Time;durP1;ratioP1;P1;durP2;ratioP2;P2;SDS_P1;SDS_P2;PMS_P1;PMS_P2;Temp;Humidity;BMP_temperature;BMP_pressure;BME280_temperature;BME280_humidity;BME280_pressure;Samples;Min_cycle;Max_cycle;Signal;HPM_P1;HPM_P2
2022/08/25 00:01:20;;;;;;;88.45;84.32;;;;;;;30.36;40.63;101517.97;4973992;28;20038;-78
2022/08/25 00:03:46;;;;;;;89.10;84.80;;;;;;;30.32;40.75;101517.88;4977793;28;20106;-79
2022/08/25 00:06:13;;;;;;;87.35;83.25;;;;;;;30.29;40.61;101517.78;4977429;28;20031;-79
2022/08/25 00:08:39;;;;;;;83.22;79.03;;;;;;;30.28;40.50;101518.94;4977495;28;20031;-79
2022/08/25 00:11:13;;;;;;;83.85;79.75;;;;;;;30.25;40.78;101525.25;4977649;28;20121;-79
2022/08/25 00:13:43;;;;;;;87.30;83.05;;;;;;;30.22;40.67;101506.44;4977427;28;20032;-82
2022/08/25 00:16:15;;;;;;;85.57;81.50;;;;;;;30.19;40.75;101517.13;4977327;28;20034;-79
2022/08/25 00:18:44;;;;;;;91.90;87.70;;;;;;;30.16;40.77;101515.06;4976073;28;20037;-79
2022/08/25 00:21:10;;;;;;;85.93;81.93;;;;;;;30.14;40.71;101511.81;4977101;28;20466;-79
2022/08/25 00:23:36;;;;;;;82.97;79.10;;;;;;;30.11;40.78;101515.28;4991884;28;20043;-79
2022/08/25 00:26:02;;;;;;;89.35;85.20;;;;;;;30.08;40.90;101518.81;4977150;28;20114;-78
2022/08/25 00:28:29;;;;;;;91.03;86.93;;;;;;;30.06;41.36;101515.56;4976990;28;20042;-79
2022/08/25 00:30:54;;;;;;;87.30;83.30;;;;;;;30.04;40.82;101517.91;4991816;28;20031;-78
2022/08/25 00:33:21;;;;;;;85.05;80.65;;;;;;;30.00;41.07;101508.66;4991979;28;20037;-78
2022/08/25 00:35:46;;;;;;;85.28;80.93;;;;;;;29.98;41.13;101511.78;4976682;28;20479;-80
2022/08/25 00:38:12;;;;;;;84.10;80.13;;;;;;;29.96;41.07;101505.78;4991858;28;20046;-80
2022/08/25 00:40:38;;;;;;;88.00;84.00;;;;;;;29.94;41.20;101512.88;4976655;28;20034;-78
2022/08/25 00:43:05;;;;;;;87.35;83.25;;;;;;;29.90;41.00;101509.97;4991824;28;20031;-79
2022/08/25 00:45:32;;;;;;;87.57;83.55;;;;;;;29.88;41.46;101509.50;4976897;28;20031;-79
2022/08/25 00:47:57;;;;;;;82.03;78.15;;;;;;;29.86;41.36;101508.25;4976838;28;20051;-77
2022/08/25 00:50:24;;;;;;;83.10;79.30;;;;;;;29.83;41.21;101511.75;4976475;28;20514;-77
2022/08/25 00:52:53;;;;;;;87.35;83.35;;;;;;;29.81;41.44;101508.50;4976758;28;20031;-79
2022/08/25 00:55:48;;;;;;;83.05;79.07;;;;;;;29.77;41.39;101506.44;4976803;28;20033;-79
2022/08/25 00:58:26;;;;;;;85.47;81.38;;;;;;;29.74;41.27;101509.94;4975934;28;20093;-77
2022/08/25 01:00:54;;;;;;;;;;;;;;;29.71;40.98;101510.66;4977630;28;20027;-77
2022/08/25 01:03:20;;;;;;;83.68;79.68;;;;;;;29.67;41.17;101506.16;4976157;28;19914;-77
2022/08/25 01:05:47;;;;;;;82.53;78.72;;;;;;;29.65;41.54;101508.44;4976277;28;20039;-77
2022/08/25 01:08:14;;;;;;;85.22;81.10;;;;;;;29.60;41.38;101503.94;4976324;28;20038;-78
2022/08/25 01:10:43;;;;;;;83.57;79.78;;;;;;;29.59;41.18;101496.75;4976421;28;20035;-78
2022/08/25 01:13:13;;;;;;;83.68;79.80;;;;;;;29.57;41.73;101501.06;4975671;28;20106;-79
2022/08/25 01:15:40;;;;;;;79.38;75.57;;;;;;;29.54;41.67;101500.59;4976665;28;20085;-79
2022/08/25 01:18:06;;;;;;;82.32;78.53;;;;;;;29.51;41.68;101494.94;4976656;28;20117;-78
2022/08/25 01:20:31;;;;;;;81.60;77.72;;;;;;;29.49;42.22;101492.50;4975851;28;20463;-78
2022/08/25 01:22:58;;;;;;;89.28;85.05;;;;;;;29.46;41.90;101495.16;4991103;28;20372;-78
2022/08/25 01:25:38;;;;;;;78.25;74.57;;;;;;;29.44;41.66;101486.38;4991259;28;20420;-78
2022/08/25 01:28:04;;;;;;;85.10;80.82;;;;;;;29.41;41.88;101489.84;4976495;28;20030;-78
2022/08/25 01:30:29;;;;;;;80.80;77.00;;;;;;;29.39;41.79;101490.22;4976069;28;20360;-79
2022/08/25 01:32:55;;;;;;;86.25;82.10;;;;;;;29.36;42.05;101487.31;4975715;28;20122;-78
2022/08/25 01:35:20;;;;;;;88.25;84.15;;;;;;;29.32;41.97;101490.81;4990655;28;20057;-78
2022/08/25 01:37:46;;;;;;;84.50;80.45;;;;;;;29.29;42.21;101494.31;4975818;28;20034;-78
2022/08/25 01:40:12;;;;;;;84.60;80.57;;;;;;;29.27;42.02;101495.81;4975703;28;20441;-78
2022/08/25 01:42:42;;;;;;;89.10;84.90;;;;;;;29.26;42.06;101499.78;4975820;28;20117;-78
2022/08/25 01:45:09;;;;;;;81.35;77.38;;;;;;;29.24;42.04;101493.75;4991380;28;20359;-78
2022/08/25 01:47:36;;;;;;;78.15;74.38;;;;;;;29.21;42.24;101494.47;4975531;28;20057;-79
2022/08/25 01:50:02;;;;;;;87.30;82.88;;;;;;;29.19;42.26;101491.22;4974131;28;20039;-77
2022/08/25 01:52:52;;;;;;;84.88;80.63;;;;;;;29.16;42.28;101495.50;4975799;28;20038;-77
2022/08/25 01:55:18;;;;;;;82.05;77.75;;;;;;;29.12;42.22;101497.38;4975482;28;20459;-79
2022/08/25 01:57:43;;;;;;;84.82;80.68;;;;;;;29.10;42.01;101491.34;4975407;28;20033;-79
2022/08/25 02:00:12;;;;;;;83.28;79.32;;;;;;;29.08;42.30;101488.09;4990576;28;20066;-79
2022/08/25 02:02:38;;;;;;;91.03;86.57;;;;;;;29.05;42.33;101488.75;4975595;28;20030;-79
2022/08/25 02:05:04;;;;;;;82.70;78.40;;;;;;;29.02;42.34;101490.28;4975656;28;20467;-78
2022/08/25 02:07:31;;;;;;;82.43;78.38;;;;;;;28.99;42.18;101487.41;4975451;28;20060;-78
2022/08/25 02:09:56;;;;;;;85.07;81.10;;;;;;;28.97;42.34;101493.28;4975003;28;20035;-78
2022/08/25 02:12:22;;;;;;;86.40;82.10;;;;;;;28.95;42.20;101490.06;4990087;28;20039;-80
2022/08/25 02:14:47;;;;;;;84.00;80.10;;;;;;;28.91;41.90;101483.59;4975364;28;20110;-78
2022/08/25 02:17:13;;;;;;;83.03;78.72;;;;;;;28.90;42.21;101487.50;4975219;28;20043;-79
2022/08/25 02:19:38;;;;;;;84.07;80.03;;;;;;;28.86;42.16;101479.06;4989943;28;20431;-78
2022/08/25 02:22:05;;;;;;;82.43;78.32;;;;;;;28.84;42.06;101480.59;4973905;28;20035;-78
2022/08/25 02:24:31;;;;;;;81.43;77.38;;;;;;;28.82;42.15;101474.56;4974406;28;20031;-79
2022/08/25 02:26:56;;;;;;;81.82;77.63;;;;;;;28.79;42.16;101480.81;4990166;28;20070;-77
2022/08/25 02:29:22;;;;;;;83.43;79.50;;;;;;;28.76;42.41;101474.00;4989993;28;20035;-78
2022/08/25 02:31:47;;;;;;;88.13;83.82;;;;;;;28.74;42.09;101481.06;4975008;28;20038;-78
2022/08/25 02:34:14;;;;;;;80.80;76.68;;;;;;;28.71;42.21;101481.75;4957670;28;20035;-78
2022/08/25 02:36:40;;;;;;;82.18;78.25;;;;;;;28.68;42.29;101475.72;4974853;28;20122;-78
2022/08/25 02:39:08;;;;;;;84.90;80.70;;;;;;;28.66;42.26;101471.69;4975214;28;20045;-78
2022/08/25 02:41:34;;;;;;;;;;;;;;;28.63;42.17;101480.72;4975800;28;20030;-79
2022/08/25 02:44:01;;;;;;;77.95;74.13;;;;;;;28.61;42.21;101471.91;4974869;28;19910;-77
2022/08/25 02:46:27;;;;;;;86.40;82.17;;;;;;;28.57;42.28;101468.19;4974793;28;20039;-78
2022/08/25 02:48:54;;;;;;;83.50;79.20;;;;;;;28.54;42.30;101468.91;4975201;28;20290;-78
2022/08/25 02:51:22;;;;;;;80.38;75.93;;;;;;;28.51;42.28;101470.41;4974808;28;20054;-77
2022/08/25 02:53:47;;;;;;;83.35;79.25;;;;;;;28.48;42.13;101460.78;4974729;28;20497;-78
2022/08/25 02:56:15;;;;;;;77.47;73.45;;;;;;;28.46;42.08;101465.09;4975130;28;20038;-79
2022/08/25 02:58:41;;;;;;;84.15;79.93;;;;;;;28.42;42.48;101462.13;4974715;28;20035;-78
2022/08/25 03:01:10;;;;;;;81.68;77.65;;;;;;;28.41;42.28;101465.28;4974644;28;20039;-78
2022/08/25 03:03:39;;;;;;;80.28;76.28;;;;;;;28.38;42.44;101457.66;4973523;28;20034;-77
2022/08/25 03:06:05;;;;;;;78.85;74.95;;;;;;;28.36;42.47;101457.97;4974589;28;20031;-78
2022/08/25 03:08:30;;;;;;;80.38;76.05;;;;;;;28.32;42.19;101445.94;4974478;28;20039;-79
2022/08/25 03:10:56;;;;;;;82.00;77.90;;;;;;;28.32;42.41;101450.69;4989541;28;20098;-78
2022/08/25 03:13:21;;;;;;;82.15;77.95;;;;;;;28.28;42.46;101447.78;4989402;28;20030;-77
2022/08/25 03:15:46;;;;;;;85.97;81.60;;;;;;;28.26;42.27;101442.56;4974876;28;20379;-78
2022/08/25 03:18:12;;;;;;;82.43;78.22;;;;;;;28.23;42.39;101450.81;4989416;28;20038;-79
2022/08/25 03:20:38;;;;;;;80.90;76.60;;;;;;;28.19;42.28;101435.97;4974364;28;20030;-79
2022/08/25 03:23:04;;;;;;;82.65;78.60;;;;;;;28.18;42.54;101437.16;4974264;28;20062;-78
2022/08/25 03:28:14;;;;;;;82.15;77.95;;;;;;;28.12;42.03;101438.50;4974897;28;20094;-80
2022/08/25 03:30:41;;;;;;;85.30;80.45;;;;;;;28.11;42.34;101442.47;4975170;28;20078;-77
2022/08/25 03:33:06;;;;;;;79.28;74.82;;;;;;;28.08;42.19;101434.81;4989357;28;20439;-77
2022/08/25 03:35:31;;;;;;;76.88;73.13;;;;;;;28.04;42.35;101429.94;4989382;28;20085;-77
2022/08/25 03:37:58;;;;;;;78.70;74.47;;;;;;;28.02;42.22;101425.88;4977991;28;20037;-78
2022/08/25 03:40:24;;;;;;;76.90;72.95;;;;;;;27.99;42.08;101424.59;4976807;28;20049;-77
2022/08/25 03:42:49;;;;;;;82.40;78.22;;;;;;;27.97;42.13;101429.72;4977737;28;20038;-77
2022/08/25 03:45:16;;;;;;;78.68;74.18;;;;;;;27.95;42.13;101431.22;4976583;28;20031;-79
2022/08/25 03:47:46;;;;;;;77.68;73.22;;;;;;;27.92;41.71;101432.72;4977810;28;20463;-77
2022/08/25 03:50:12;;;;;;;78.20;73.65;;;;;;;27.90;42.09;101435.03;4977817;28;20031;-76
2022/08/25 03:52:38;;;;;;;76.05;71.97;;;;;;;27.88;42.11;101422.63;4977719;28;20034;-77
2022/08/25 03:55:07;;;;;;;81.03;76.80;;;;;;;27.86;41.75;101422.97;4977978;28;20034;-77
2022/08/25 03:57:32;;;;;;;79.88;75.13;;;;;;;27.83;41.85;101412.56;4993245;28;20427;-76
2022/08/25 03:59:58;;;;;;;82.65;78.25;;;;;;;27.81;41.89;101410.13;4977600;28;20493;-77
2022/08/25 04:02:23;;;;;;;79.43;75.15;;;;;;;27.77;41.82;101400.84;4977538;28;20086;-79
2022/08/25 04:04:49;;;;;;;77.20;73.20;;;;;;;27.75;41.95;101405.91;4978095;28;20062;-77
2022/08/25 04:07:14;;;;;;;78.05;74.00;;;;;;;27.73;41.79;101408.22;4977760;28;20035;-77
2022/08/25 04:09:40;;;;;;;74.95;70.63;;;;;;;27.71;41.71;101410.53;4977355;28;20114;-77
2022/08/25 04:12:05;;;;;;;73.85;70.00;;;;;;;27.68;41.29;101404.88;4977122;28;20082;-77
2022/08/25 04:14:31;;;;;;;79.70;75.25;;;;;;;27.66;41.52;101415.50;4977108;28;20215;-78
2022/08/25 04:16:56;;;;;;;76.20;72.00;;;;;;;27.63;41.48;101411.44;4977244;28;20030;-76
2022/08/25 04:19:22;;;;;;;77.68;73.25;;;;;;;27.60;41.42;101412.13;4977249;28;20034;-77
2022/08/25 04:21:48;;;;;;;81.22;77.00;;;;;;;27.56;41.44;101409.22;4977532;28;20030;-77
2022/08/25 04:24:13;;;;;;;79.93;75.28;;;;;;;27.54;41.75;101403.22;4977165;28;20077;-78
2022/08/25 04:26:46;;;;;;;76.00;72.15;;;;;;;27.52;41.28;101410.25;4977072;28;20030;-77
2022/08/25 04:29:14;;;;;;;76.45;72.47;;;;;;;27.50;41.14;101409.78;4992110;28;20023;-78
2022/08/25 04:31:41;;;;;;;75.90;71.97;;;;;;;27.47;41.39;101411.28;4977116;28;20448;-76
2022/08/25 04:34:07;;;;;;;77.30;73.00;;;;;;;27.44;41.39;101406.38;4977155;28;20039;-78
2022/08/25 04:36:33;;;;;;;79.72;75.22;;;;;;;27.43;41.17;101399.22;4976779;28;20088;-77
2022/08/25 04:38:58;;;;;;;75.90;71.80;;;;;;;27.38;41.41;101394.69;4976619;28;20039;-78
2022/08/25 04:41:25;;;;;;;75.13;71.13;;;;;;;27.35;40.89;101398.16;4976605;28;20042;-77
2022/08/25 04:43:51;;;;;;;75.18;71.10;;;;;;;27.34;41.13;101391.00;4977350;28;20454;-77
2022/08/25 04:46:23;;;;;;;76.93;72.38;;;;;;;27.31;40.91;101397.22;4976835;28;20031;-76
2022/08/25 04:48:50;;;;;;;76.40;72.50;;;;;;;27.29;41.14;101395.94;4974575;28;20047;-77
2022/08/25 04:51:22;;;;;;;75.93;71.25;;;;;;;27.26;41.13;101391.06;4976753;28;20497;-77
2022/08/25 04:53:49;;;;;;;81.50;76.72;;;;;;;27.24;41.14;101398.91;4975380;28;20479;-76
2022/08/25 04:56:17;;;;;;;78.22;73.90;;;;;;;27.21;41.07;101405.16;4976605;28;20065;-76
2022/08/25 04:58:45;;;;;;;73.03;69.07;;;;;;;27.18;40.84;101404.69;4976272;28;20027;-77
2022/08/25 05:01:17;;;;;;;72.30;68.40;;;;;;;27.15;40.92;101408.09;4976484;28;20380;-78
2022/08/25 05:03:44;;;;;;;74.72;70.82;;;;;;;27.13;41.10;101404.84;4976711;28;20034;-77
2022/08/25 05:06:10;;;;;;;76.27;72.00;;;;;;;27.10;40.90;101405.53;4976696;28;20098;-78
2022/08/25 05:08:36;;;;;;;74.70;70.90;;;;;;;27.08;40.61;101407.03;4976562;28;20034;-77
2022/08/25 05:11:11;;;;;;;74.75;70.75;;;;;;;27.05;40.50;101410.50;4976375;28;20039;-76
2022/08/25 05:13:37;;;;;;;73.55;69.82;;;;;;;27.01;40.69;101415.88;4976265;28;20041;-77
2022/08/25 05:16:03;;;;;;;73.75;69.90;;;;;;;27.00;40.79;101422.59;4975939;28;20043;-77
2022/08/25 05:18:30;;;;;;;78.53;73.85;;;;;;;26.97;40.96;101421.31;4976560;28;20165;-75
2022/08/25 05:20:56;;;;;;;71.10;67.18;;;;;;;26.95;40.95;101420.00;4976128;28;20035;-75
2022/08/25 05:23:23;;;;;;;74.97;71.07;;;;;;;26.92;40.71;101415.97;4976064;28;20039;-74
2022/08/25 05:25:50;;;;;;;77.68;73.68;;;;;;;26.90;40.87;101425.75;4976255;28;20047;-76
2022/08/25 05:28:16;;;;;;;71.68;68.07;;;;;;;26.89;40.81;101426.91;4976030;28;20037;-76
2022/08/25 05:30:43;;;;;;;73.88;70.05;;;;;;;26.86;40.75;101422.03;4975552;28;20113;-75
2022/08/25 05:33:10;;;;;;;73.32;69.50;;;;;;;26.84;40.63;101432.63;4975892;28;20042;-77
2022/08/25 05:35:35;;;;;;;71.47;67.57;;;;;;;26.82;40.41;101429.41;4991059;28;20121;-77
2022/08/25 05:38:02;;;;;;;73.10;68.63;;;;;;;26.79;40.93;101430.91;4975718;28;20134;-76
2022/08/25 05:40:29;;;;;;;73.72;69.63;;;;;;;26.75;40.86;101425.19;4975921;28;20035;-76
2022/08/25 05:42:54;;;;;;;75.47;70.97;;;;;;;26.74;40.65;101433.88;4976232;28;20118;-76
2022/08/25 05:45:20;;;;;;;73.65;69.43;;;;;;;26.72;40.69;101433.38;4975728;28;20126;-78
2022/08/25 05:47:45;;;;;;;66.97;63.20;;;;;;;26.70;40.87;101439.25;4975308;28;20046;-75
2022/08/25 05:50:11;;;;;;;65.88;62.28;;;;;;;26.69;40.77;101428.53;4991174;28;20085;-77
2022/08/25 05:52:37;;;;;;;66.75;62.95;;;;;;;26.66;40.50;101437.47;4975736;28;20511;-77
2022/08/25 05:55:03;;;;;;;66.00;62.35;;;;;;;26.63;40.84;101433.41;4975229;28;20077;-77
2022/08/25 05:57:28;;;;;;;63.97;60.63;;;;;;;26.62;40.42;101439.31;4975298;28;20027;-78
2022/08/25 05:59:54;;;;;;;67.78;63.28;;;;;;;26.60;40.56;101439.66;4974825;28;20038;-77
2022/08/25 06:05:03;;;;;;;71.07;66.95;;;;;;;26.56;40.58;101444.25;4975178;28;20049;-76
2022/08/25 06:07:29;;;;;;;69.03;64.68;;;;;;;26.54;40.36;101441.00;4974939;28;20403;-79
2022/08/25 06:09:54;;;;;;;70.40;66.32;;;;;;;26.52;40.59;101441.31;4975263;28;20117;-69
2022/08/25 06:12:20;;;;;;;69.28;65.15;;;;;;;26.50;40.73;101446.34;4975302;28;20035;-79
2022/08/25 06:14:47;;;;;;;69.13;65.20;;;;;;;26.49;40.91;101435.63;4990518;28;20129;-80
2022/08/25 06:17:13;;;;;;;68.25;63.53;;;;;;;26.47;40.59;101435.13;4975092;28;20033;-81
2022/08/25 06:19:38;;;;;;;70.32;65.85;;;;;;;26.46;40.44;101444.56;4974874;28;20078;-78
2022/08/25 06:22:04;;;;;;;69.35;65.30;;;;;;;26.44;41.01;101431.06;4975068;28;20034;-77
2022/08/25 06:24:29;;;;;;;67.97;63.85;;;;;;;26.43;40.71;101439.69;4975108;28;20067;-81
2022/08/25 06:26:56;;;;;;;68.03;64.63;;;;;;;26.43;41.07;101436.94;4989801;28;20121;-80
2022/08/25 06:29:22;;;;;;;67.97;64.30;;;;;;;26.41;40.84;101437.28;4974979;28;20031;-79
2022/08/25 06:31:48;;;;;;;69.15;65.10;;;;;;;26.40;40.68;101445.91;4975693;28;20452;-80
2022/08/25 06:34:15;;;;;;;71.70;67.70;;;;;;;26.39;40.93;101439.56;4975110;28;20042;-80
2022/08/25 06:36:40;;;;;;;69.43;64.80;;;;;;;26.39;40.52;101445.09;4974712;28;20033;-79
2022/08/25 06:39:06;;;;;;;67.47;64.07;;;;;;;26.40;40.84;101451.44;4990062;28;20030;-80
2022/08/25 06:41:32;;;;;;;70.80;66.70;;;;;;;26.39;41.04;101450.66;4990544;28;20026;-81
2022/08/25 06:43:57;;;;;;;68.38;63.97;;;;;;;26.40;40.97;101445.91;4975165;28;20526;-80
2022/08/25 06:46:25;;;;;;;69.53;65.28;;;;;;;26.39;41.09;101434.03;4989890;28;20031;-78
2022/08/25 06:48:53;;;;;;;66.82;63.10;;;;;;;26.39;40.59;101433.22;4975092;28;20431;-78
2022/08/25 06:51:20;;;;;;;65.93;62.53;;;;;;;26.40;40.80;101440.38;4974755;28;20034;-82
2022/08/25 06:53:48;;;;;;;66.35;62.60;;;;;;;26.40;40.86;101434.84;4974748;28;20042;-79
2022/08/25 06:56:15;;;;;;;66.72;62.88;;;;;;;26.39;40.98;101428.50;4974718;28;20035;-79
2022/08/25 06:58:41;;;;;;;66.88;62.55;;;;;;;26.39;40.81;101427.69;4974541;28;20031;-79
2022/08/25 07:01:16;;;;;;;70.70;66.30;;;;;;;26.40;40.70;101434.84;4974905;28;20038;-79
2022/08/25 07:03:42;;;;;;;70.10;66.53;;;;;;;26.40;40.80;101440.38;4974677;28;20157;-80
2022/08/25 07:06:08;;;;;;;65.70;62.35;;;;;;;26.42;41.11;101441.66;4974633;28;20041;-79
2022/08/25 07:08:34;;;;;;;64.85;60.88;;;;;;;26.42;41.17;101430.59;4975189;28;20035;-82
2022/08/25 07:11:07;;;;;;;60.95;57.85;;;;;;;26.44;41.14;101428.28;4975704;28;20434;-80
2022/08/25 07:13:33;;;;;;;69.20;65.78;;;;;;;26.44;40.80;101425.53;4978176;28;20514;-83
2022/08/25 07:15:59;;;;;;;68.68;65.00;;;;;;;26.46;40.92;101431.56;4978870;28;20134;-79
2022/08/25 07:18:25;;;;;;;65.57;61.65;;;;;;;26.47;40.62;101427.63;4978829;28;20381;-79
2022/08/25 07:20:52;;;;;;;67.40;63.85;;;;;;;26.49;40.94;101419.00;4993808;28;20077;-79
2022/08/25 07:23:18;;;;;;;65.15;61.72;;;;;;;26.51;40.50;101419.44;4993872;28;20101;-78
2022/08/25 07:25:43;;;;;;;68.20;64.40;;;;;;;26.53;40.85;101419.97;4978342;28;20403;-78
2022/08/25 07:28:09;;;;;;;65.57;62.17;;;;;;;26.56;40.66;101416.53;4978197;28;20033;-79
2022/08/25 07:30:34;;;;;;;63.33;60.05;;;;;;;26.58;40.42;101411.44;4977214;28;20034;-79
2022/08/25 07:32:59;;;;;;;65.43;61.97;;;;;;;26.62;40.43;101419.94;4978373;28;20053;-79
2022/08/25 07:35:26;;;;;;;66.28;62.53;;;;;;;26.64;40.89;101415.66;4978214;28;20027;-79
2022/08/25 07:37:55;;;;;;;69.28;65.20;;;;;;;26.67;40.72;101422.50;4978796;28;20035;-80
2022/08/25 07:40:28;;;;;;;69.32;64.72;;;;;;;26.70;40.63;101416.28;4978151;28;20481;-80
2022/08/25 07:42:56;;;;;;;70.20;66.22;;;;;;;26.73;40.67;101410.88;4977759;28;20038;-79
2022/08/25 07:45:28;;;;;;;;;;;;;;;26.78;40.80;101415.41;4978085;28;20422;-81
2022/08/25 07:47:58;;;;;;;60.72;57.38;;;;;;;26.82;40.60;101415.56;4977653;28;20369;-79
2022/08/25 07:50:25;;;;;;;62.28;58.88;;;;;;;26.85;40.66;101420.41;4977546;28;20073;-79
2022/08/25 07:52:51;;;;;;;65.25;61.72;;;;;;;26.88;40.58;101420.53;4976400;28;20344;-79
2022/08/25 07:55:16;;;;;;;68.22;64.45;;;;;;;26.93;40.47;101422.31;4978320;28;20502;-78
2022/08/25 07:57:42;;;;;;;69.35;65.65;;;;;;;26.96;40.64;101421.63;4992480;28;20081;-79
2022/08/25 08:00:14;;;;;;;66.63;63.00;;;;;;;27.00;40.22;101425.34;4993023;28;20437;-79
2022/08/25 08:02:40;;;;;;;66.45;62.75;;;;;;;27.04;40.35;101412.44;4978091;28;20041;-78
2022/08/25 08:05:06;;;;;;;69.85;66.15;;;;;;;27.07;40.12;101414.53;4992531;28;20065;-79
2022/08/25 08:07:32;;;;;;;71.70;66.88;;;;;;;27.13;40.11;101420.69;4992466;28;20058;-79
2022/08/25 08:09:57;;;;;;;70.28;66.60;;;;;;;27.16;40.13;101417.22;4993184;28;20034;-79
2022/08/25 08:12:23;;;;;;;68.85;65.40;;;;;;;27.22;40.19;101418.69;4992926;28;20354;-80
2022/08/25 08:14:50;;;;;;;70.80;67.40;;;;;;;27.26;39.94;101410.50;4977380;28;20122;-80
2022/08/25 08:17:15;;;;;;;73.47;69.63;;;;;;;27.30;39.66;101417.00;4976939;28;20451;-78
2022/08/25 08:19:41;;;;;;;64.80;61.13;;;;;;;27.35;39.96;101425.09;4977140;28;20077;-81
2022/08/25 08:22:07;;;;;;;67.05;63.78;;;;;;;27.39;39.80;101421.31;4976679;28;20053;-79
2022/08/25 08:24:37;;;;;;;68.90;65.30;;;;;;;27.45;39.83;101413.59;4975413;28;20023;-78
2022/08/25 08:27:07;;;;;;;69.63;66.13;;;;;;;27.51;39.29;101411.41;4977345;28;20030;-79
2022/08/25 08:29:34;;;;;;;72.72;68.80;;;;;;;27.56;39.44;101413.97;4992220;28;20038;-78
2022/08/25 08:32:00;;;;;;;69.53;65.72;;;;;;;27.62;39.40;101412.59;4977271;28;20035;-78
2022/08/25 08:34:25;;;;;;;68.95;65.47;;;;;;;27.67;39.22;101406.00;4976995;28;20478;-80
2022/08/25 08:36:51;;;;;;;67.90;64.30;;;;;;;27.73;38.97;101413.78;4976678;28;20477;-80
2022/08/25 08:39:16;;;;;;;71.65;67.20;;;;;;;27.80;39.01;101416.81;4976942;28;20458;-78
2022/08/25 08:44:44;;;;;;;66.38;63.17;;;;;;;27.93;39.09;101411.31;4977092;28;20062;-81
2022/08/25 08:47:49;;;;;;;69.03;65.72;;;;;;;27.99;38.81;101416.28;4976864;28;20034;-81
2022/08/25 08:50:36;;;;;;;70.82;67.10;;;;;;;28.07;38.95;101413.75;4977475;28;20097;-79
2022/08/25 08:53:01;;;;;;;73.38;69.53;;;;;;;28.14;39.06;101413.97;4976603;28;20077;-80
2022/08/25 08:55:31;;;;;;;66.03;62.72;;;;;;;28.20;38.78;101415.41;4976555;28;20034;-79
2022/08/25 08:58:01;;;;;;;75.30;70.75;;;;;;;28.26;38.65;101411.22;4991517;28;20415;-80
2022/08/25 09:00:28;;;;;;;72.82;68.72;;;;;;;28.32;38.67;101409.81;4976836;28;20030;-79
2022/08/25 09:03:08;;;;;;;75.03;70.72;;;;;;;28.39;38.59;101407.25;4976921;28;20089;-79
2022/08/25 09:05:47;;;;;;;67.45;63.97;;;;;;;28.47;38.04;101406.34;4977294;28;20031;-80
2022/08/25 09:08:14;;;;;;;72.63;68.75;;;;;;;28.53;37.71;101406.16;4976478;28;20027;-78
2022/08/25 09:11:01;;;;;;;74.35;70.38;;;;;;;28.60;38.10;101403.56;4976582;28;20035;-79
2022/08/25 09:13:44;;;;;;;73.23;69.73;;;;;;;28.67;37.76;101406.56;4975362;28;20555;-80
2022/08/25 09:16:54;;;;;;;70.60;66.65;;;;;;;28.75;37.78;101405.63;4976809;28;20023;-80
2022/08/25 09:19:48;;;;;;;72.18;68.68;;;;;;;28.82;38.22;101408.63;4975626;28;20038;-83
2022/08/25 09:22:22;;;;;;;78.65;74.78;;;;;;;28.87;37.76;101407.56;4976853;28;20061;-79
2022/08/25 09:25:04;;;;;;;73.90;70.40;;;;;;;28.92;37.78;101413.69;4981819;28;20037;-79
2022/08/25 09:27:40;;;;;;;75.75;71.75;;;;;;;28.99;37.45;101406.75;4982979;28;20054;-80
2022/08/25 09:30:07;;;;;;;76.43;72.28;;;;;;;29.06;37.45;101401.44;4980079;28;20073;-80
2022/08/25 09:32:42;;;;;;;80.25;76.10;;;;;;;29.12;36.93;101411.13;4978869;28;20132;-81
2022/08/25 09:35:17;;;;;;;81.38;77.50;;;;;;;29.17;36.79;101405.31;4976492;28;20078;-81
2022/08/25 09:37:42;;;;;;;80.88;76.88;;;;;;;29.22;37.37;101405.06;4976789;28;20026;-80
2022/08/25 09:40:10;;;;;;;76.93;73.22;;;;;;;29.28;36.94;101400.88;4976454;28;20481;-79
2022/08/25 09:42:48;;;;;;;83.70;79.65;;;;;;;29.34;36.69;101393.06;4977009;28;20035;-80
2022/08/25 09:45:15;;;;;;;79.63;75.32;;;;;;;29.40;36.26;101393.63;4980520;28;20042;-80
2022/08/25 09:47:43;;;;;;;80.45;76.65;;;;;;;29.45;36.22;101385.00;4992636;28;20348;-73
2022/08/25 09:50:15;;;;;;;78.63;74.65;;;;;;;29.51;36.19;101386.38;4975376;28;20510;-72
2022/08/25 09:52:43;;;;;;;78.50;74.68;;;;;;;29.55;36.27;101387.28;4975256;28;20077;-73
2022/08/25 09:55:12;;;;;;;78.53;74.53;;;;;;;29.61;36.36;101390.59;4973830;28;20027;-73
2022/08/25 09:57:54;;;;;;;82.38;78.50;;;;;;;29.66;35.90;101384.78;4974985;28;20035;-73
2022/08/25 10:00:28;;;;;;;85.82;81.40;;;;;;;29.71;36.15;101385.38;4974100;28;20023;-76
2022/08/25 10:03:20;;;;;;;82.93;78.93;;;;;;;29.76;36.54;101393.44;4975110;28;20026;-74
2022/08/25 10:05:57;;;;;;;83.07;78.78;;;;;;;29.81;36.05;101381.25;4975420;28;20066;-75
2022/08/25 10:08:38;;;;;;;86.23;82.23;;;;;;;29.87;36.02;101381.78;4990671;28;20052;-74
2022/08/25 10:11:08;;;;;;;83.95;79.95;;;;;;;29.93;35.71;101371.97;4975125;28;20268;-74
2022/08/25 10:13:46;;;;;;;85.60;81.53;;;;;;;29.97;35.80;101370.91;4975318;28;20117;-74
2022/08/25 10:16:22;;;;;;;;;;;;;;;30.04;36.22;101366.66;4975413;28;20030;-74
2022/08/25 10:19:05;;;;;;;80.90;77.20;;;;;;;30.08;35.81;101362.00;4975000;28;20422;-75
2022/08/25 10:21:31;;;;;;;83.68;79.55;;;;;;;30.13;35.06;101361.72;4974849;28;20031;-74
2022/08/25 10:24:00;;;;;;;80.32;76.32;;;;;;;30.17;35.23;101363.41;4974739;28;20038;-76
2022/08/25 10:26:53;;;;;;;82.43;78.47;;;;;;;30.25;35.31;101355.25;4974813;28;20062;-74
2022/08/25 10:29:25;;;;;;;82.95;78.95;;;;;;;30.28;34.86;101343.38;4974725;28;20101;-73
2022/08/25 10:31:58;;;;;;;84.38;80.47;;;;;;;30.32;34.58;101339.50;4974484;28;20135;-73
2022/08/25 10:34:46;;;;;;;84.40;80.53;;;;;;;30.38;34.13;101338.03;4974883;28;20034;-74
2022/08/25 10:37:16;;;;;;;85.28;81.40;;;;;;;30.45;33.86;101344.97;4974519;28;20039;-74
2022/08/25 10:39:45;;;;;;;91.60;86.97;;;;;;;30.49;33.05;101331.91;4974560;28;20117;-74
2022/08/25 10:42:24;;;;;;;85.97;82.00;;;;;;;30.52;33.35;101326.41;4974399;28;20027;-74
2022/08/25 10:48:05;;;;;;;89.50;85.00;;;;;;;30.60;33.96;101322.59;4974378;28;20096;-74
2022/08/25 10:50:51;;;;;;;90.55;86.38;;;;;;;30.65;35.02;101318.72;4973902;28;20579;-74
2022/08/25 10:53:31;;;;;;;85.70;81.70;;;;;;;30.70;34.03;101318.44;4974477;28;20038;-74
2022/08/25 10:56:08;;;;;;;83.97;79.85;;;;;;;30.74;33.83;101315.72;4974841;28;20023;-75
2022/08/25 10:58:43;;;;;;;87.00;82.70;;;;;;;30.80;33.67;101314.25;4973019;28;20515;-74
2022/08/25 11:01:44;;;;;;;90.25;86.15;;;;;;;30.84;33.21;101304.00;4974734;28;20081;-74
2022/08/25 11:04:15;;;;;;;90.20;85.90;;;;;;;30.87;33.29;101306.06;4974297;28;20116;-74
2022/08/25 11:06:51;;;;;;;87.35;83.13;;;;;;;30.92;32.78;101308.56;4974237;28;20031;-74
2022/08/25 11:09:27;;;;;;;93.22;88.25;;;;;;;30.97;31.54;101307.44;4974152;28;20442;-75
2022/08/25 11:12:08;;;;;;;92.30;87.78;;;;;;;31.03;32.72;101314.34;4974944;28;20039;-73
2022/08/25 11:14:41;;;;;;;92.35;88.05;;;;;;;31.07;32.61;101303.22;4974448;28;20031;-75
2022/08/25 11:17:20;;;;;;;87.55;83.00;;;;;;;31.10;32.37;101300.53;4974607;28;20063;-75
2022/08/25 11:20:02;;;;;;;87.05;82.85;;;;;;;31.13;32.07;101299.78;4974831;28;20081;-75
2022/08/25 11:22:42;;;;;;;88.80;84.25;;;;;;;31.18;31.99;101302.28;4974193;28;20121;-76
2022/08/25 11:25:08;;;;;;;90.97;86.78;;;;;;;31.21;31.24;101292.34;4989224;28;20111;-76
2022/08/25 11:27:44;;;;;;;91.85;87.72;;;;;;;31.24;33.20;101300.78;4973934;28;20042;-76
2022/08/25 11:30:13;;;;;;;87.35;83.25;;;;;;;31.28;32.14;101289.69;4974184;28;20463;-75